地図

経路データ

SID SEASON NUMBER BASIN SUBBASIN NAME ISO_TIME NATURE LAT LON WMO_WIND WMO_PRES WMO_AGENCY TRACK_TYPE DIST2LAND LANDFALL IFLAG USA_AGENCY USA_ATCF_ID USA_LAT USA_LON USA_RECORD USA_STATUS USA_WIND USA_PRES USA_SSHS USA_R34_NE USA_R34_SE USA_R34_SW USA_R34_NW USA_R50_NE USA_R50_SE USA_R50_SW USA_R50_NW USA_R64_NE USA_R64_SE USA_R64_SW USA_R64_NW USA_POCI USA_ROCI USA_RMW USA_EYE TOKYO_LAT TOKYO_LON TOKYO_GRADE TOKYO_WIND TOKYO_PRES TOKYO_R50_DIR TOKYO_R50_LONG TOKYO_R50_SHORT TOKYO_R30_DIR TOKYO_R30_LONG TOKYO_R30_SHORT TOKYO_LAND CMA_LAT CMA_LON CMA_CAT CMA_WIND CMA_PRES HKO_LAT HKO_LON HKO_CAT HKO_WIND HKO_PRES NEWDELHI_LAT NEWDELHI_LON NEWDELHI_GRADE NEWDELHI_WIND NEWDELHI_PRES NEWDELHI_CI NEWDELHI_DP NEWDELHI_POCI REUNION_LAT REUNION_LON REUNION_TYPE REUNION_WIND REUNION_PRES REUNION_TNUM REUNION_CI REUNION_RMW REUNION_R34_NE REUNION_R34_SE REUNION_R34_SW REUNION_R34_NW REUNION_R50_NE REUNION_R50_SE REUNION_R50_SW REUNION_R50_NW REUNION_R64_NE REUNION_R64_SE REUNION_R64_SW REUNION_R64_NW BOM_LAT BOM_LON BOM_TYPE BOM_WIND BOM_PRES BOM_TNUM BOM_CI BOM_RMW BOM_R34_NE BOM_R34_SE BOM_R34_SW BOM_R34_NW BOM_R50_NE BOM_R50_SE BOM_R50_SW BOM_R50_NW BOM_R64_NE BOM_R64_SE BOM_R64_SW BOM_R64_NW BOM_ROCI BOM_POCI BOM_EYE BOM_POS_METHOD BOM_PRES_METHOD NADI_LAT NADI_LON NADI_CAT NADI_WIND NADI_PRES WELLINGTON_LAT WELLINGTON_LON WELLINGTON_WIND WELLINGTON_PRES DS824_LAT DS824_LON DS824_STAGE DS824_WIND DS824_PRES TD9636_LAT TD9636_LON TD9636_STAGE TD9636_WIND TD9636_PRES TD9635_LAT TD9635_LON TD9635_WIND TD9635_PRES TD9635_ROCI NEUMANN_LAT NEUMANN_LON NEUMANN_CLASS NEUMANN_WIND NEUMANN_PRES MLC_LAT MLC_LON MLC_CLASS MLC_WIND MLC_PRES USA_GUST BOM_GUST BOM_GUST_PER REUNION_GUST REUNION_GUST_PER USA_SEAHGT USA_SEARAD_NE USA_SEARAD_SE USA_SEARAD_SW USA_SEARAD_NW STORM_SPEED STORM_DIR
1994064S15052 1994 17 SI MM KELVINA 1994-03-05 06:00:00 TS -14.9000 51.9000 25 1000 reunion main 154 128 _____O________ -1 -14.9000 51.9000 2 25 1000 2.00000 2.00000 8 214
1994064S15052 1994 17 SI MM KELVINA 1994-03-05 09:00:00 TS -15.2251 51.6727 main 128 107 _____P________ -1 -15.2251 51.6727 2 26 999 7 213
1994064S15052 1994 17 SI MM KELVINA 1994-03-05 12:00:00 TS -15.5000 51.5000 28 998 reunion main 107 99 _____O________ -1 -15.5000 51.5000 2 28 998 2.50000 2.50000 5 208
1994064S15052 1994 17 SI MM KELVINA 1994-03-05 15:00:00 TS -15.6875 51.4199 main 102 96 _____P________ -1 -15.6875 51.4199 2 28 998 2 340
1994064S15052 1994 17 SI MM KELVINA 1994-03-05 18:00:00 TS -15.3000 51.4333 28 998 reunion main 96 96 O____O______O_ jtwc_sh SH191994 -14.3000 51.5000 25 -1 -15.8000 51.4000 2 28 998 2.50000 2.50000 -14.3000 51.5000 TC 25 5 358
1994064S15052 1994 17 SI MM KELVINA 1994-03-05 21:00:00 TS -15.2000 51.4062 main 96 85 P____P______P_ SH191994 -14.5425 51.4050 27 -1 -15.8575 51.4075 2 28 998 -14.5425 51.4050 TC 27 1 305
1994064S15052 1994 17 SI MM KELVINA 1994-03-06 00:00:00 TS -15.2400 51.3400 28 998 reunion main 85 75 O____O______O_ jtwc_sh SH191994 -14.8000 51.3000 30 -1 -15.9000 51.4000 2 28 998 2.50000 2.50000 -14.8000 51.3000 TC 30 3 222
1994064S15052 1994 17 SI MM KELVINA 1994-03-06 03:00:00 TS -15.3875 51.2284 main 75 68 P____P______P_ SH191994 -15.0850 51.1850 30 -1 -15.9925 51.3150 2 28 998 -15.0850 51.1850 TC 30 4 207
1994064S15052 1994 17 SI MM KELVINA 1994-03-06 06:00:00 TS -15.6333 51.1333 28 998 reunion main 68 68 O____O______O_ jtwc_sh SH191994 -15.4000 51.1000 30 -1 -16.1000 51.2000 2 28 998 2.00000 2.50000 -15.4000 51.1000 TC 30 5 194
1994064S15052 1994 17 SI MM KELVINA 1994-03-06 09:00:00 TS -15.8900 51.0924 main 82 82 P____P______P_ SH191994 -15.7425 51.0849 32 -1 -16.1850 51.1074 2 28 998 -15.7425 51.0849 TC 32 5 188
1994064S15052 1994 17 SI MM KELVINA 1994-03-06 12:00:00 TS -16.1667 51.0667 28 998 reunion main 96 91 O____O______O_ jtwc_sh SH191994 -16.1000 51.1000 35 0 -16.3000 51.0000 2 28 998 2.00000 2.50000 -16.1000 51.1000 TC 35 6 188
1994064S15052 1994 17 SI MM KELVINA 1994-03-06 15:00:00 TS -16.4517 51.0067 main 102 102 P____P______P_ SH191994 -16.4425 51.0925 35 0 -16.4700 50.8351 2 29 996 -16.4425 51.0925 TC 35 6 189
1994064S15052 1994 17 SI MM KELVINA 1994-03-06 18:00:00 TS -16.7667 50.9667 30 995 reunion main 123 123 O____O______O_ jtwc_sh SH191994 -16.8000 51.1000 35 0 -16.7000 50.7000 2 30 995 2.50000 2.50000 -16.8000 51.1000 TC 35 7 183
1994064S15052 1994 17 SI MM KELVINA 1994-03-06 21:00:00 TS -17.1258 50.9750 main 132 132 P____P______P_ SH191994 -17.2000 51.1350 35 0 -16.9775 50.6550 2 30 995 -17.2000 51.1350 TC 35 7 174
1994064S15052 1994 17 SI MM KELVINA 1994-03-07 00:00:00 TS -17.5000 51.0333 30 995 reunion main 149 149 O____O______O_ jtwc_sh SH191994 -17.6000 51.2000 35 0 -17.3000 50.7000 2 30 995 2.50000 2.50000 -17.6000 51.2000 TC 35 7 168
1994064S15052 1994 17 SI MM KELVINA 1994-03-07 03:00:00 TS -17.8500 51.1300 main 169 169 P____P______P_ SH191994 -17.9575 51.2925 37 0 -17.6350 50.8051 2 32 993 -17.9575 51.2925 TC 37 7 162
1994064S15052 1994 17 SI MM KELVINA 1994-03-07 06:00:00 TS -18.2000 51.2667 35 992 reunion main 198 198 O____O______O_ jtwc_sh SH191994 -18.3000 51.4000 40 0 -18.0000 51.0000 3 35 992 3.00000 3.00000 -18.3000 51.4000 TC 40 8 159
1994064S15052 1994 17 SI MM KELVINA 1994-03-07 09:00:00 TS -18.5717 51.4258 main 215 215 P____P______P_ SH191994 -18.6575 51.4926 40 0 -18.4001 51.2923 3 35 992 -18.6575 51.4926 TC 40 8 157
1994064S15052 1994 17 SI MM KELVINA 1994-03-07 12:00:00 TS -18.9333 51.6000 35 992 reunion main 244 244 O____O______O_ jtwc_sh SH191994 -19.0000 51.6000 40 0 -18.8000 51.6000 3 35 992 3.00000 3.00000 -19.0000 51.6000 TC 40 8 154
1994064S15052 1994 17 SI MM KELVINA 1994-03-07 15:00:00 TS -19.2575 51.7742 main 281 281 P____P______P_ SH191994 -19.3075 51.7425 42 0 -19.1575 51.8376 3 37 991 -19.3075 51.7425 TC 42 7 154
1994064S15052 1994 17 SI MM KELVINA 1994-03-07 18:00:00 TS -19.5667 51.9333 40 990 reunion main 300 300 O____O______O_ jtwc_sh SH191994 -19.6000 51.9000 45 0 -19.5000 52.0000 3 40 990 3.00000 3.00000 -19.6000 51.9000 TC 45 7 157
1994064S15052 1994 17 SI MM KELVINA 1994-03-07 21:00:00 TS -19.8783 52.0601 main 330 327 P____P______P_ SH191994 -19.8925 52.0501 45 0 -19.8500 52.0801 3 42 987 -19.8925 52.0501 TC 45 7 161
1994064S15052 1994 17 SI MM KELVINA 1994-03-08 00:00:00 TS -20.2000 52.1667 45 985 reunion main 327 308 O____O______O_ jtwc_sh SH191994 -20.2000 52.2000 45 0 -20.2000 52.1000 3 45 985 3.50000 3.50000 -20.2000 52.2000 TC 45 7 163
1994064S15052 1994 17 SI MM KELVINA 1994-03-08 03:00:00 TS -20.5425 52.2692 main 308 291 P____P______P_ SH191994 -20.5425 52.3500 47 0 -20.5425 52.1075 3 45 985 -20.5425 52.3500 TC 47 7 165
1994064S15052 1994 17 SI MM KELVINA 1994-03-08 06:00:00 TS -20.9000 52.3667 45 985 reunion main 291 280 O____O______O_ jtwc_sh SH191994 -20.9000 52.5000 50 0 -20.9000 52.1000 3 45 985 3.50000 3.50000 -20.9000 52.5000 TC 50 7 165
1994064S15052 1994 17 SI MM KELVINA 1994-03-08 09:00:00 TS -21.2567 52.4742 main 280 274 P____P______P_ SH191994 -21.2350 52.6650 50 0 -21.3000 52.0926 3 45 985 -21.2350 52.6650 TC 50 8 166
1994064S15052 1994 17 SI MM KELVINA 1994-03-08 12:00:00 TS -21.6333 52.5667 45 985 reunion main 274 274 O____O______O_ jtwc_sh SH191994 -21.6000 52.8000 50 0 -21.7000 52.1000 3 45 985 3.50000 3.50000 -21.6000 52.8000 TC 50 8 170
1994064S15052 1994 17 SI MM KELVINA 1994-03-08 15:00:00 TS -22.0500 52.6267 main 287 287 P____P______P_ SH191994 -22.0425 52.8726 50 0 -22.0650 52.1350 3 45 985 -22.0425 52.8726 TC 50 8 174
1994064S15052 1994 17 SI MM KELVINA 1994-03-08 18:00:00 TS -22.4667 52.6667 45 985 reunion main 299 299 O____O______O_ jtwc_sh SH191994 -22.5000 52.9000 50 0 -22.4000 52.2000 3 45 985 3.00000 3.50000 -22.5000 52.9000 TC 50 8 175
1994064S15052 1994 17 SI MM KELVINA 1994-03-08 21:00:00 TS -22.8408 52.7050 main 316 316 P____P______P_ SH191994 -22.9075 52.9076 50 0 -22.7075 52.3000 3 45 985 -22.9075 52.9076 TC 50 7 175
1994064S15052 1994 17 SI MM KELVINA 1994-03-09 00:00:00 TS -23.2000 52.7333 45 985 reunion main 341 341 O____O______O_ jtwc_sh SH191994 -23.3000 52.9000 50 0 -23.0000 52.4000 3 45 985 3.00000 3.50000 -23.3000 52.9000 TC 50 7 175
1994064S15052 1994 17 SI MM KELVINA 1994-03-09 03:00:00 TS -23.5617 52.7674 main 363 363 P____P______P_ SH191994 -23.7000 52.9149 47 0 -23.2850 52.4725 3 42 987 -23.7000 52.9149 TC 47 7 176
1994064S15052 1994 17 SI MM KELVINA 1994-03-09 06:00:00 TS -23.9333 52.7667 40 990 reunion main 387 387 O____O______O_ jtwc_sh SH191994 -24.1000 52.9000 45 0 -23.6000 52.5000 3 40 990 3.00000 3.00000 -24.1000 52.9000 TC 45 8 184
1994064S15052 1994 17 SI MM KELVINA 1994-03-09 09:00:00 TS -24.3283 52.7058 main 428 428 P____P______P_ SH191994 -24.5000 52.8151 45 0 -23.9850 52.4874 3 40 990 -24.5000 52.8151 TC 45 8 191
1994064S15052 1994 17 SI MM KELVINA 1994-03-09 12:00:00 TS -24.7333 52.6000 40 990 reunion main 469 469 O____O______O_ jtwc_sh SH191994 -24.9000 52.7000 45 0 -24.4000 52.4000 3 40 990 3.00000 3.00000 -24.9000 52.7000 TC 45 8 194
1994064S15052 1994 17 SI MM KELVINA 1994-03-09 15:00:00 TS -25.1358 52.4841 main 512 512 P____P______P_ SH191994 -25.3075 52.6148 42 0 -24.7925 52.2225 3 37 991 -25.3075 52.6148 TC 42 8 197
1994064S15052 1994 17 SI MM KELVINA 1994-03-09 18:00:00 TS -25.5333 52.3333 35 992 reunion main 512 510 O____O______O_ jtwc_sh SH191994 -25.7000 52.5000 40 0 -25.2000 52.0000 3 35 992 2.50000 3.00000 -25.7000 52.5000 TC 40 8 202
1994064S15052 1994 17 SI MM KELVINA 1994-03-09 21:00:00 TS -25.9167 52.1408 main 507 502 P____P______P_ SH191994 -26.0500 52.3149 40 0 -25.6500 51.7925 3 35 992 -26.0500 52.3149 TC 40 9 205
1994064S15052 1994 17 SI MM KELVINA 1994-03-10 00:00:00 TS -26.3000 51.9333 35 992 reunion main 502 499 O____O______O_ jtwc_sh SH191994 -26.4000 52.1000 40 0 -26.1000 51.6000 3 35 992 2.50000 3.00000 -26.4000 52.1000 TC 40 9 204
1994064S15052 1994 17 SI MM KELVINA 1994-03-10 03:00:00 TS -26.6949 51.7523 main 506 497 P____P______P_ SH191994 -26.7924 51.9073 37 0 -26.5000 51.4423 3 32 993 -26.7924 51.9073 TC 37 9 202
1994064S15052 1994 17 SI MM KELVINA 1994-03-10 06:00:00 TS -27.1000 51.5667 30 995 reunion main 506 497 O____O______O_ jtwc_sh SH191994 -27.2000 51.7000 35 0 -26.9000 51.3000 2 30 995 2.50000 2.50000 -27.2000 51.7000 TC 35 9 203
1994064S15052 1994 17 SI MM KELVINA 1994-03-10 09:00:00 TS -27.5217 51.3549 main 511 503 P____P______P_ SH191994 -27.6075 51.4575 32 -1 -27.3500 51.1499 2 30 995 -27.6075 51.4575 TC 32 9 206
1994064S15052 1994 17 SI MM KELVINA 1994-03-10 12:00:00 TS -27.9200 51.1200 30 995 reunion main 512 512 O____O______O_ jtwc_sh SH191994 -28.0000 51.2000 30 -1 -27.8000 51.0000 2 30 995 2.50000 2.50000 -28.0000 51.2000 TC 30 9 208
1994064S15052 1994 17 SI MM KELVINA 1994-03-10 15:00:00 TS -28.2725 50.9024 main 526 526 P____P______P_ SH191994 -28.3601 50.9477 27 -1 -28.1850 50.8572 2 30 995 -28.3601 50.9477 TC 27 8 207
1994064S15052 1994 17 SI MM KELVINA 1994-03-10 18:00:00 TS -28.6333 50.7000 30 995 reunion main 535 535 O____O______O_ jtwc_sh SH191994 -28.7000 50.7000 25 -1 -28.6000 50.7000 2 30 995 2.00000 2.50000 -28.7000 50.7000 TC 25 9 203
1994064S15052 1994 17 SI MM KELVINA 1994-03-10 21:00:00 TS -29.1351 50.4854 main 565 565 _____P________ SH191994 -1 -29.1351 50.4854 2 29 996 TC 11 198
1994064S15052 1994 17 SI MM KELVINA 1994-03-11 00:00:00 TS -29.7000 50.3000 28 998 reunion main 608 608 _____O________ -1 -29.7000 50.3000 2 28 998 2.00000 2.50000 11 194
1994064S15052 1994 17 SI MM KELVINA 1994-03-11 03:00:00 TS -30.2149 50.1827 main 650 650 _____P________ -1 -30.2149 50.1827 2 28 998 10 185
1994064S15052 1994 17 SI MM KELVINA 1994-03-11 06:00:00 TS -30.7000 50.2000 28 998 reunion main 698 698 _____O________ -1 -30.7000 50.2000 2 28 998 2.00000 2.50000 10 171
1994064S15052 1994 17 SI MM KELVINA 1994-03-11 09:00:00 TS -31.1874 50.3747 main 756 756 _____P________ -1 -31.1874 50.3747 2 10 155
1994064S15052 1994 17 SI MM KELVINA 1994-03-11 12:00:00 ET -31.6000 50.7000 reunion main 809 809 _____O________ -1 -31.6000 50.7000 5 9.90000 9 139
1994064S15052 1994 17 SI MM KELVINA 1994-03-11 15:00:00 ET -31.8947 51.0902 main 857 857 _____P________ -1 -31.8947 51.0902 5 9 123
1994064S15052 1994 17 SI MM KELVINA 1994-03-11 18:00:00 ET -32.1000 51.6000 reunion main 900 900 _____O________ -1 -32.1000 51.6000 5 9.90000 10 111
1994064S15052 1994 17 SI MM KELVINA 1994-03-11 21:00:00 ET -32.2648 52.2054 main 949 949 _____P________ -1 -32.2648 52.2054 5 11 105
1994064S15052 1994 17 SI MM KELVINA 1994-03-12 00:00:00 ET -32.4000 52.9000 reunion main 996 996 _____O________ -1 -32.4000 52.9000 5 9.90000 12 104
1994064S15052 1994 17 SI MM KELVINA 1994-03-12 03:00:00 ET -32.5644 53.6124 main 1054 1054 _____P________ -1 -32.5644 53.6124 5 13 103
1994064S15052 1994 17 SI MM KELVINA 1994-03-12 06:00:00 ET -32.7000 54.4000 reunion main 1111 1111 _____O________ -1 -32.7000 54.4000 5 9.90000 14 98
1994064S15052 1994 17 SI MM KELVINA 1994-03-12 09:00:00 ET -32.7715 55.2751 main 1177 1177 _____P________ -1 -32.7715 55.2751 5 15 94
1994064S15052 1994 17 SI MM KELVINA 1994-03-12 12:00:00 ET -32.8000 56.2000 reunion main 1239 _____O________ -1 -32.8000 56.2000 5 9.90000 16 92

IBTrACS Databaseについて

本データベースは、米国NOAAが公開する1842年以降の世界の熱帯低気圧のベストトラックデータアーカイブInternational Best Track Archive for Climate Stewardship (IBTrACS)を、ウェブで閲覧しやすい形式に変換したものです。

最終更新日:2021-10-25